createdAt,value
2024-01-15T00:00:16.994Z,99458.75
2024-01-15T00:02:43.852Z,99446.00
2024-01-15T00:05:10.587Z,99448.53
2024-01-15T00:07:37.135Z,99447.69
2024-01-15T00:10:04.179Z,99441.75
2024-01-15T00:12:30.760Z,99446.00
2024-01-15T00:14:57.556Z,99449.38
2024-01-15T00:17:24.153Z,99446.84
2024-01-15T00:19:50.927Z,99433.22
2024-01-15T00:22:17.857Z,99437.47
2024-01-15T00:24:45.130Z,99428.97
2024-01-15T00:27:11.809Z,99434.09
2024-01-15T00:29:39.148Z,99428.13
2024-01-15T00:32:06.184Z,99416.22
2024-01-15T00:34:32.940Z,99420.47
2024-01-15T00:36:59.855Z,99412.78
2024-01-15T00:39:27.114Z,99420.47
2024-01-15T00:41:53.863Z,99417.91
2024-01-15T00:44:20.340Z,99411.91
2024-01-15T00:46:47.910Z,99402.56
2024-01-15T00:49:15.374Z,99402.56
2024-01-15T00:51:42.775Z,99404.25
2024-01-15T00:54:09.609Z,99400.84
2024-01-15T00:56:36.677Z,99406.81
2024-01-15T00:59:03.335Z,99401.72
2024-01-15T01:01:30.135Z,99410.22
2024-01-15T01:03:57.171Z,99403.41
2024-01-15T01:06:23.913Z,99399.16
2024-01-15T01:08:50.490Z,99396.59
2024-01-15T01:11:17.461Z,99394.03
2024-01-15T01:13:44.066Z,99390.63
2024-01-15T01:16:10.716Z,99386.38
2024-01-15T01:18:37.747Z,99390.63
2024-01-15T01:21:05.085Z,99385.53
2024-01-15T01:23:31.948Z,99398.31
2024-01-15T01:25:58.558Z,99388.94
2024-01-15T01:28:25.368Z,99389.78
2024-01-15T01:30:52.460Z,99396.59
2024-01-15T01:33:19.748Z,99395.75
2024-01-15T01:35:47.615Z,99396.56
2024-01-15T01:38:14.246Z,99387.22
2024-01-15T01:40:40.939Z,99388.94
2024-01-15T01:43:07.609Z,99396.59
2024-01-15T01:45:34.673Z,99392.34
2024-01-15T01:48:02.543Z,99386.38
2024-01-15T01:50:32.756Z,99377.81
2024-01-15T01:53:00.212Z,99376.97
2024-01-15T01:55:31.114Z,99388.94
2024-01-15T01:57:58.189Z,99377.88
2024-01-15T02:00:25.196Z,99383.81
2024-01-15T02:02:52.127Z,99382.13
2024-01-15T02:05:20.360Z,99382.13
2024-01-15T02:07:47.187Z,99383.81
2024-01-15T02:10:14.837Z,99382.97
2024-01-15T02:12:41.616Z,99376.16
2024-01-15T02:15:08.799Z,99379.53
2024-01-15T02:17:35.490Z,99378.69
2024-01-15T02:20:02.750Z,99377.84
2024-01-15T02:22:29.321Z,99377.84
2024-01-15T02:24:56.309Z,99375.25
2024-01-15T02:27:23.028Z,99371.00
2024-01-15T02:29:50.017Z,99376.16
2024-01-15T02:32:16.689Z,99367.63
2024-01-15T02:34:43.666Z,99367.59
2024-01-15T02:37:10.468Z,99369.28
2024-01-15T02:39:37.398Z,99366.75
2024-01-15T02:42:04.052Z,99362.47
2024-01-15T02:44:30.830Z,99373.53
2024-01-15T02:46:57.488Z,99376.09
2024-01-15T02:49:24.963Z,99375.25
2024-01-15T02:52:11.479Z,99376.09
2024-01-15T02:54:58.163Z,99365.88
2024-01-15T02:57:44.720Z,99352.25
2024-01-15T03:00:31.726Z,99359.91
2024-01-15T03:03:18.313Z,99365.88
2024-01-15T03:06:05.496Z,99370.06
2024-01-15T03:08:32.251Z,99373.53
2024-01-15T03:10:59.390Z,99371.78
2024-01-15T03:13:26.149Z,99368.38
2024-01-15T03:15:52.811Z,99357.28
2024-01-15T03:18:19.465Z,99362.41
2024-01-15T03:20:46.207Z,99365.81
2024-01-15T03:23:12.914Z,99362.41
2024-01-15T03:25:39.566Z,99351.31
2024-01-15T03:28:06.581Z,99355.59
2024-01-15T03:30:33.221Z,99343.72
2024-01-15T03:32:59.938Z,99352.25
2024-01-15T03:35:30.294Z,99339.47
2024-01-15T03:37:56.872Z,99350.50
2024-01-15T03:40:24.025Z,99347.94
2024-01-15T03:42:50.855Z,99344.53
2024-01-15T03:45:17.728Z,99339.41
2024-01-15T03:47:44.336Z,99338.53
2024-01-15T03:50:11.415Z,99343.66
2024-01-15T03:52:38.199Z,99344.56
2024-01-15T03:55:06.156Z,99338.63
2024-01-15T03:57:33.022Z,99337.69
2024-01-15T03:59:59.683Z,99332.66
2024-01-15T04:02:26.564Z,99336.91
2024-01-15T04:04:53.208Z,99323.22
2024-01-15T04:07:20.130Z,99325.78
2024-01-15T04:09:46.699Z,99324.13
2024-01-15T04:12:13.439Z,99317.22
2024-01-15T04:14:40.175Z,99301.91
2024-01-15T04:17:06.825Z,99302.78
2024-01-15T04:19:33.738Z,99302.75
2024-01-15T04:22:00.269Z,99295.94
2024-01-15T04:24:26.795Z,99293.41
2024-01-15T04:26:53.416Z,99293.41
2024-01-15T04:29:20.133Z,99283.16
2024-01-15T04:31:46.745Z,99284.00
2024-01-15T04:34:13.313Z,99295.91
2024-01-15T04:36:42.398Z,99292.53
2024-01-15T04:39:09.144Z,99292.50
2024-01-15T04:41:36.061Z,99289.09
2024-01-15T04:44:02.614Z,99287.41
2024-01-15T04:46:29.417Z,99287.44
2024-01-15T04:48:56.136Z,99284.03
2024-01-15T04:51:22.833Z,99273.81
2024-01-15T04:53:49.988Z,99278.91
2024-01-15T04:56:16.720Z,99285.72
2024-01-15T04:58:43.641Z,99285.72
2024-01-15T05:01:11.372Z,99275.56
2024-01-15T05:03:38.264Z,99278.91
2024-01-15T05:06:05.390Z,99269.53
2024-01-15T05:08:32.013Z,99265.25
2024-01-15T05:10:58.607Z,99269.53
2024-01-15T05:13:25.332Z,99273.69
2024-01-15T05:15:52.098Z,99268.63
2024-01-15T05:18:19.005Z,99278.00
2024-01-15T05:20:46.241Z,99268.63
2024-01-15T05:23:12.833Z,99272.03
2024-01-15T05:25:39.445Z,99269.47
2024-01-15T05:28:06.902Z,99264.41
2024-01-15T05:30:33.557Z,99258.44
2024-01-15T05:33:01.573Z,99242.25
2024-01-15T05:35:28.440Z,99251.63
2024-01-15T05:37:55.271Z,99255.78
2024-01-15T05:40:21.957Z,99259.19
2024-01-15T05:42:48.791Z,99258.34
2024-01-15T05:45:15.645Z,99261.72
2024-01-15T05:47:42.552Z,99260.03
2024-01-15T05:50:09.748Z,99259.19
2024-01-15T05:52:36.606Z,99255.78
2024-01-15T05:55:04.333Z,99256.63
2024-01-15T05:57:31.127Z,99261.69
2024-01-15T05:59:57.826Z,99260.84
2024-01-15T06:02:24.391Z,99268.53
2024-01-15T06:04:51.136Z,99261.72
2024-01-15T06:07:17.722Z,99253.13
2024-01-15T06:09:44.388Z,99254.03
2024-01-15T06:12:11.071Z,99244.63
2024-01-15T06:14:37.721Z,99248.03
2024-01-15T06:17:04.501Z,99240.31
2024-01-15T06:19:31.303Z,99249.72
2024-01-15T06:21:58.479Z,99254.78
2024-01-15T06:24:25.346Z,99246.25
2024-01-15T06:26:51.968Z,99240.31
2024-01-15T06:29:18.665Z,99243.78
2024-01-15T06:31:45.599Z,99242.00
2024-01-15T06:34:12.620Z,99254.78
2024-01-15T06:36:39.367Z,99249.69
2024-01-15T06:39:06.254Z,99248.81
2024-01-15T06:41:32.850Z,99247.19
2024-01-15T06:43:59.699Z,99249.75
2024-01-15T06:46:26.428Z,99239.50
2024-01-15T06:48:53.310Z,99246.28
2024-01-15T06:51:19.897Z,99240.28
2024-01-15T06:53:46.713Z,99244.53
2024-01-15T06:56:13.290Z,99243.72
2024-01-15T06:58:39.825Z,99245.38
2024-01-15T07:01:06.942Z,99244.50
2024-01-15T07:03:33.679Z,99235.13
2024-01-15T07:06:00.595Z,99242.84
2024-01-15T07:08:27.445Z,99241.94
2024-01-15T07:10:54.261Z,99232.56
2024-01-15T07:13:20.994Z,99242.72
2024-01-15T07:15:47.693Z,99246.03
2024-01-15T07:18:14.484Z,99246.94
2024-01-15T07:20:41.113Z,99247.88
2024-01-15T07:23:08.036Z,99250.28
2024-01-15T07:25:35.040Z,99237.50
2024-01-15T07:28:01.852Z,99234.09
2024-01-15T07:30:28.795Z,99235.00
2024-01-15T07:32:55.606Z,99235.00
2024-01-15T07:35:22.262Z,99241.03
2024-01-15T07:37:48.865Z,99230.72
2024-01-15T07:40:16.034Z,99241.78
2024-01-15T07:42:43.901Z,99240.03
2024-01-15T07:45:11.868Z,99237.44
2024-01-15T07:47:38.580Z,99237.44
2024-01-15T07:50:06.609Z,99231.53
2024-01-15T07:52:35.165Z,99230.53
2024-01-15T07:55:02.452Z,99226.19
2024-01-15T07:57:29.418Z,99227.19
2024-01-15T07:59:56.066Z,99225.47
2024-01-15T08:02:23.022Z,99230.53
2024-01-15T08:04:49.758Z,99222.81
2024-01-15T08:07:16.523Z,99220.25
2024-01-15T08:09:43.340Z,99221.94
2024-01-15T08:12:11.283Z,99224.50
2024-01-15T08:14:37.986Z,99219.38
2024-01-15T08:17:04.762Z,99218.50
2024-01-15T08:19:31.528Z,99220.22
2024-01-15T08:21:58.310Z,99210.84
2024-01-15T08:24:24.934Z,99203.16
2024-01-15T08:26:51.527Z,99196.31
2024-01-15T08:29:19.950Z,99197.09
2024-01-15T08:31:47.039Z,99200.53
2024-01-15T08:34:13.900Z,99205.66
2024-01-15T08:36:41.722Z,99193.59
2024-01-15T08:39:10.338Z,99207.28
2024-01-15T08:41:37.587Z,99205.53
2024-01-15T08:44:04.336Z,99198.72
2024-01-15T08:46:31.316Z,99196.19
2024-01-15T08:48:58.132Z,99201.22
2024-01-15T08:51:24.978Z,99200.22
2024-01-15T08:53:51.748Z,99199.50
2024-01-15T08:56:18.392Z,99196.94
2024-01-15T08:58:47.403Z,99195.19
2024-01-15T09:01:14.655Z,99196.81
2024-01-15T09:03:43.944Z,99196.78
2024-01-15T09:06:11.817Z,99197.59
2024-01-15T09:08:38.491Z,99198.53
2024-01-15T09:11:05.296Z,99202.78
2024-01-15T09:13:32.090Z,99188.25
2024-01-15T09:15:59.626Z,99190.78
2024-01-15T09:18:26.330Z,99191.63
2024-01-15T09:20:53.081Z,99190.91
2024-01-15T09:23:19.928Z,99185.78
2024-01-15T09:25:46.524Z,99168.69
2024-01-15T09:28:13.451Z,99169.44
2024-01-15T09:30:40.360Z,99168.56
2024-01-15T09:33:07.041Z,99177.97
2024-01-15T09:35:33.785Z,99177.16
2024-01-15T09:38:00.382Z,99187.34
2024-01-15T09:40:31.907Z,99188.13
2024-01-15T09:42:59.169Z,99186.41
2024-01-15T09:45:26.059Z,99183.00
2024-01-15T09:47:52.832Z,99189.81
2024-01-15T09:50:19.777Z,99191.47
2024-01-15T09:52:47.246Z,99187.97
2024-01-15T09:55:17.220Z,99180.44
2024-01-15T09:57:46.167Z,99177.88
2024-01-15T10:00:13.936Z,99182.03
2024-01-15T10:02:41.536Z,99179.66
2024-01-15T10:05:09.049Z,99171.72
2024-01-15T10:07:37.952Z,99171.69
2024-01-15T10:10:05.136Z,99168.22
2024-01-15T10:12:32.194Z,99165.72
2024-01-15T10:14:59.240Z,99163.88
2024-01-15T10:17:28.285Z,99159.59
2024-01-15T10:19:55.022Z,99160.47
2024-01-15T10:22:21.694Z,99161.25
2024-01-15T10:24:49.344Z,99155.44
2024-01-15T10:27:17.586Z,99152.84
2024-01-15T10:29:44.419Z,99153.69
2024-01-15T10:32:13.195Z,99158.84
2024-01-15T10:34:41.854Z,99150.44
2024-01-15T10:37:10.042Z,99155.47
2024-01-15T10:39:37.778Z,99151.22
2024-01-15T10:42:05.468Z,99144.47
2024-01-15T10:44:32.429Z,99146.25
2024-01-15T10:46:59.576Z,99146.16
2024-01-15T10:49:32.890Z,99137.63
2024-01-15T10:52:02.760Z,99126.28
2024-01-15T10:54:30.873Z,99120.31
2024-01-15T10:56:58.150Z,99130.56
2024-01-15T10:59:25.247Z,99121.16
2024-01-15T11:01:56.467Z,99119.31
2024-01-15T11:04:25.200Z,99126.03
2024-01-15T11:06:55.326Z,99115.09
2024-01-15T11:09:27.048Z,99108.13
2024-01-15T11:12:08.838Z,99111.69
2024-01-15T11:14:46.765Z,99100.44
2024-01-15T11:17:14.659Z,99105.50
2024-01-15T11:19:46.311Z,99105.53
2024-01-15T11:22:31.382Z,99106.38
2024-01-15T11:25:03.741Z,99107.38
2024-01-15T11:27:43.757Z,99101.25
2024-01-15T11:30:12.274Z,99109.75
2024-01-15T11:32:42.869Z,99105.59
2024-01-15T11:35:11.331Z,99096.31
2024-01-15T11:37:53.874Z,99094.56
2024-01-15T11:40:21.423Z,99086.78
2024-01-15T11:42:50.100Z,99085.06
2024-01-15T11:45:20.280Z,99086.00
2024-01-15T11:48:15.508Z,99099.59
2024-01-15T11:50:47.584Z,99101.31
2024-01-15T11:53:35.564Z,99102.19
2024-01-15T11:56:04.175Z,99107.19
2024-01-15T11:58:31.269Z,99102.75
2024-01-15T12:00:58.094Z,99102.06
2024-01-15T12:03:25.869Z,99104.47
2024-01-15T12:05:56.070Z,99086.50
2024-01-15T12:08:23.981Z,99088.19
2024-01-15T12:10:50.913Z,99080.34
2024-01-15T12:13:19.476Z,99098.41
2024-01-15T12:15:47.689Z,99095.69
2024-01-15T12:18:16.838Z,99101.41
2024-01-15T12:20:45.123Z,99109.53
2024-01-15T12:23:12.724Z,99099.91
2024-01-15T12:25:40.443Z,99102.88
2024-01-15T12:28:07.696Z,99113.31
2024-01-15T12:30:37.369Z,99114.28
2024-01-15T12:33:08.638Z,99108.84
2024-01-15T12:35:36.026Z,99111.97
2024-01-15T12:38:06.508Z,99117.22
2024-01-15T12:40:36.756Z,99110.84
2024-01-15T12:43:04.856Z,99113.78
2024-01-15T12:45:32.424Z,99116.09
2024-01-15T12:47:59.930Z,99102.91
2024-01-15T12:50:29.772Z,99107.78
2024-01-15T12:52:56.748Z,99112.94
2024-01-15T12:55:23.523Z,99115.38
2024-01-15T12:57:51.264Z,99121.41
2024-01-15T13:00:18.131Z,99110.88
2024-01-15T13:02:45.302Z,99121.81
2024-01-15T13:05:14.404Z,99126.13
2024-01-15T13:07:42.279Z,99144.94
2024-01-15T13:10:10.588Z,99154.28
2024-01-15T13:12:39.764Z,99152.44
2024-01-15T13:15:07.283Z,99141.22
2024-01-15T13:17:34.003Z,99145.63
2024-01-15T13:20:01.880Z,99150.81
2024-01-15T13:22:33.120Z,99145.69
2024-01-15T13:25:00.540Z,99144.78
2024-01-15T13:27:27.329Z,99143.94
2024-01-15T13:29:53.996Z,99157.63
2024-01-15T13:32:27.073Z,99145.53
2024-01-15T13:34:53.960Z,99162.66
2024-01-15T13:37:21.172Z,99160.06
2024-01-15T13:39:48.066Z,99164.38
2024-01-15T13:42:16.259Z,99167.72
2024-01-15T13:44:43.036Z,99166.88
2024-01-15T13:47:09.976Z,99161.59
2024-01-15T13:49:38.198Z,99154.00
2024-01-15T13:52:05.382Z,99169.34
2024-01-15T13:54:44.627Z,99170.97
2024-01-15T13:57:16.361Z,99158.09
2024-01-15T13:59:43.224Z,99176.13
2024-01-15T14:02:11.273Z,99177.84
2024-01-15T14:04:39.992Z,99165.81
2024-01-15T14:07:07.366Z,99173.41
2024-01-15T14:09:35.084Z,99170.03
2024-01-15T14:12:01.750Z,99169.16
2024-01-15T14:14:29.392Z,99165.75
2024-01-15T14:16:55.967Z,99165.75
2024-01-15T14:19:22.992Z,99162.19
2024-01-15T14:21:50.227Z,99168.25
2024-01-15T14:24:18.230Z,99175.91
2024-01-15T14:26:45.011Z,99175.88
2024-01-15T14:29:11.615Z,99183.50
2024-01-15T14:31:38.748Z,99185.94
2024-01-15T14:34:06.659Z,99185.03
2024-01-15T14:36:33.526Z,99193.63
2024-01-15T14:39:00.205Z,99193.56
2024-01-15T14:41:27.551Z,99201.28
2024-01-15T14:43:54.125Z,99203.78
2024-01-15T14:46:22.044Z,99202.06
2024-01-15T14:48:48.993Z,99199.47
2024-01-15T14:51:15.717Z,99204.56
2024-01-15T14:53:42.565Z,99208.81
2024-01-15T14:56:09.194Z,99213.00
2024-01-15T14:58:36.217Z,99212.06
2024-01-15T15:01:03.280Z,99219.00
2024-01-15T15:03:30.335Z,99219.03
2024-01-15T15:05:57.869Z,99226.69
2024-01-15T15:08:24.884Z,99221.66
2024-01-15T15:10:51.505Z,99231.94
2024-01-15T15:13:26.551Z,99226.00
2024-01-15T15:16:00.591Z,99238.03
2024-01-15T15:18:27.526Z,99243.16
2024-01-15T15:20:55.731Z,99248.38
2024-01-15T15:23:24.957Z,99243.16
2024-01-15T15:25:51.655Z,99249.19
2024-01-15T15:28:18.283Z,99248.34
2024-01-15T15:30:45.108Z,99252.59
2024-01-15T15:33:11.854Z,99251.78
2024-01-15T15:35:40.417Z,99256.03
2024-01-15T15:38:07.427Z,99268.06
2024-01-15T15:40:33.904Z,99271.47
2024-01-15T15:43:00.601Z,99271.47
2024-01-15T15:45:27.970Z,99272.38
2024-01-15T15:47:54.679Z,99274.97
2024-01-15T15:50:22.913Z,99280.97
2024-01-15T15:52:49.735Z,99291.25
2024-01-15T15:55:16.375Z,99291.28
2024-01-15T15:57:43.213Z,99292.97
2024-01-15T16:00:10.498Z,99307.56
2024-01-15T16:02:40.450Z,99307.56
2024-01-15T16:05:10.612Z,99314.38
2024-01-15T16:07:38.027Z,99312.66
2024-01-15T16:10:05.267Z,99317.84
2024-01-15T16:12:31.985Z,99325.56
2024-01-15T16:15:01.070Z,99322.94
2024-01-15T16:23:15.821Z,99328.19
2024-01-15T16:23:29.655Z,99329.94
2024-01-15T16:23:50.906Z,99336.84
2024-01-15T16:25:50.149Z,99336.75
2024-01-15T16:28:17.169Z,99341.16
2024-01-15T16:30:45.800Z,99345.41
2024-01-15T16:33:14.998Z,99351.44
2024-01-15T16:35:41.698Z,99353.19
2024-01-15T16:38:08.601Z,99353.22
2024-01-15T16:40:36.300Z,99366.91
2024-01-15T16:43:04.798Z,99353.22
2024-01-15T16:45:31.578Z,99374.69
2024-01-15T16:47:58.417Z,99368.69
2024-01-15T16:50:25.909Z,99374.69
2024-01-15T16:52:52.488Z,99369.56
2024-01-15T16:55:19.110Z,99373.88
2024-01-15T16:57:46.266Z,99383.31
2024-01-15T17:00:13.468Z,99391.88
2024-01-15T17:02:40.399Z,99389.28
2024-01-15T17:05:07.933Z,99397.03
2024-01-15T17:07:34.586Z,99390.28
2024-01-15T17:10:01.369Z,99387.66
2024-01-15T17:12:28.080Z,99395.41
2024-01-15T17:14:54.589Z,99396.31
2024-01-15T17:17:22.557Z,99395.44
2024-01-15T17:19:50.359Z,99395.47
2024-01-15T17:22:16.789Z,99399.72
2024-01-15T17:24:43.481Z,99404.88
2024-01-15T17:27:09.994Z,99410.03
2024-01-15T17:29:36.987Z,99416.91
2024-01-15T17:32:04.168Z,99425.44
2024-01-15T17:34:31.028Z,99436.56
2024-01-15T17:36:57.754Z,99426.28
2024-01-15T17:39:24.364Z,99438.28
2024-01-15T17:41:51.102Z,99431.41
2024-01-15T17:44:18.236Z,99422.88
2024-01-15T17:46:45.083Z,99437.41
2024-01-15T17:49:11.868Z,99439.13
2024-01-15T17:51:38.814Z,99435.69
2024-01-15T17:54:06.121Z,99433.97
2024-01-15T17:56:32.856Z,99445.09
2024-01-15T17:58:59.774Z,99432.25
2024-01-15T18:01:26.506Z,99444.25
2024-01-15T18:03:53.872Z,99452.84
2024-01-15T18:06:20.739Z,99456.28
2024-01-15T18:08:51.452Z,99470.84
2024-01-15T18:11:19.021Z,99466.53
2024-01-15T18:13:46.918Z,99469.06
2024-01-15T18:16:13.593Z,99477.66
2024-01-15T18:18:40.444Z,99475.13
2024-01-15T18:21:07.235Z,99477.66
2024-01-15T18:23:34.949Z,99480.22
2024-01-15T18:26:01.741Z,99485.34
2024-01-15T18:28:28.349Z,99500.81
2024-01-15T18:30:55.052Z,99498.22
2024-01-15T18:33:24.359Z,99496.56
2024-01-15T18:35:51.582Z,99494.81
2024-01-15T18:38:18.390Z,99494.78
2024-01-15T18:40:44.973Z,99507.66
2024-01-15T18:43:11.458Z,99510.22
2024-01-15T18:45:38.322Z,99509.38
2024-01-15T18:48:05.706Z,99509.34
2024-01-15T18:50:32.430Z,99511.13
2024-01-15T18:53:00.466Z,99510.28
2024-01-15T18:55:27.073Z,99509.44
2024-01-15T18:57:56.349Z,99514.53
2024-01-15T19:00:25.605Z,99511.13
2024-01-15T19:02:58.883Z,99529.16
2024-01-15T19:05:26.608Z,99532.59
2024-01-15T19:07:54.428Z,99535.16
2024-01-15T19:10:21.091Z,99543.78
2024-01-15T19:12:47.800Z,99542.88
2024-01-15T19:15:16.756Z,99558.41
2024-01-15T19:17:46.259Z,99550.66
2024-01-15T19:20:14.807Z,99559.16
2024-01-15T19:22:41.909Z,99560.97
2024-01-15T19:25:09.072Z,99561.84
2024-01-15T19:27:37.612Z,99565.25
2024-01-15T19:30:04.595Z,99566.09
2024-01-15T19:32:31.448Z,99565.22
2024-01-15T19:34:59.569Z,99560.97
2024-01-15T19:37:26.515Z,99572.09
2024-01-15T19:39:53.063Z,99568.66
2024-01-15T19:42:20.210Z,99571.19
2024-01-15T19:44:47.149Z,99580.53
2024-01-15T19:47:13.738Z,99584.03
2024-01-15T19:49:44.671Z,99593.47
2024-01-15T19:52:12.030Z,99596.88
2024-01-15T19:54:39.190Z,99601.16
2024-01-15T19:57:05.926Z,99599.44
2024-01-15T19:59:35.887Z,99600.31
2024-01-15T20:02:02.792Z,99608.03
2024-01-15T20:04:29.676Z,99600.34
2024-01-15T20:06:56.598Z,99601.22
2024-01-15T20:09:24.874Z,99610.72
2024-01-15T20:11:51.996Z,99609.88
2024-01-15T20:14:19.985Z,99621.91
2024-01-15T20:16:46.627Z,99614.22
2024-01-15T20:19:14.434Z,99612.53
2024-01-15T20:21:41.296Z,99615.06
2024-01-15T20:24:08.108Z,99627.97
2024-01-15T20:26:35.024Z,99634.84
2024-01-15T20:29:01.726Z,99633.13
2024-01-15T20:31:29.374Z,99636.47
2024-01-15T20:33:56.345Z,99644.94
2024-01-15T20:36:22.900Z,99636.47
2024-01-15T20:38:49.688Z,99642.50
2024-01-15T20:41:17.779Z,99651.13
2024-01-15T20:43:45.198Z,99650.25
2024-01-15T20:46:12.545Z,99651.94
2024-01-15T20:48:39.966Z,99655.50
2024-01-15T20:51:06.609Z,99665.78
2024-01-15T20:53:34.362Z,99660.66
2024-01-15T20:56:01.308Z,99664.97
2024-01-15T20:58:28.799Z,99666.66
2024-01-15T21:00:55.842Z,99670.94
2024-01-15T21:03:23.654Z,99671.78
2024-01-15T21:05:50.723Z,99680.31
2024-01-15T21:08:17.657Z,99676.09
2024-01-15T21:10:44.219Z,99672.66
2024-01-15T21:13:10.733Z,99678.66
2024-01-15T21:15:37.528Z,99677.88
2024-01-15T21:18:07.173Z,99675.25
2024-01-15T21:20:34.426Z,99674.38
2024-01-15T21:23:01.169Z,99686.44
2024-01-15T21:25:27.801Z,99691.53
2024-01-15T21:27:54.922Z,99690.72
2024-01-15T21:30:22.788Z,99689.06
2024-01-15T21:32:49.730Z,99695.03
2024-01-15T21:35:16.584Z,99694.97
2024-01-15T21:37:44.298Z,99696.63
2024-01-15T21:40:11.683Z,99694.03
2024-01-15T21:42:39.165Z,99699.19
2024-01-15T21:45:08.733Z,99696.69
2024-01-15T21:47:39.058Z,99699.25
2024-01-15T21:50:06.635Z,99693.28
2024-01-15T21:52:33.507Z,99690.66
2024-01-15T21:55:00.040Z,99703.56
2024-01-15T21:57:26.590Z,99704.44
2024-01-15T21:59:53.262Z,99705.25
2024-01-15T22:02:19.849Z,99707.72
2024-01-15T22:04:46.408Z,99707.03
2024-01-15T22:07:13.293Z,99707.03
2024-01-15T22:09:39.899Z,99714.69
2024-01-15T22:12:07.292Z,99714.72
2024-01-15T22:14:33.887Z,99713.00
2024-01-15T22:17:00.416Z,99718.25
2024-01-15T22:19:27.422Z,99725.06
2024-01-15T22:21:54.259Z,99722.50
2024-01-15T22:24:20.780Z,99731.03
2024-01-15T22:26:47.626Z,99736.16
2024-01-15T22:29:14.472Z,99742.13
2024-01-15T22:31:42.439Z,99742.16
2024-01-15T22:34:09.222Z,99744.72
2024-01-15T22:36:35.756Z,99753.25
2024-01-15T22:39:02.607Z,99746.34
2024-01-15T22:41:29.284Z,99755.78
2024-01-15T22:43:57.129Z,99754.94
2024-01-15T22:46:23.738Z,99760.91
2024-01-15T22:48:50.618Z,99765.19
2024-01-15T22:51:17.168Z,99766.03
2024-01-15T22:53:43.952Z,99772.06
2024-01-15T22:56:10.713Z,99776.31
2024-01-15T22:58:37.299Z,99770.31
2024-01-15T23:01:04.062Z,99778.03
2024-01-15T23:03:30.897Z,99780.53
2024-01-15T23:05:57.630Z,99784.00
2024-01-15T23:08:24.274Z,99784.81
2024-01-15T23:10:50.919Z,99789.97
2024-01-15T23:13:18.102Z,99780.59
2024-01-15T23:15:44.557Z,99787.44
2024-01-15T23:18:14.176Z,99784.88
2024-01-15T23:20:40.818Z,99785.72
2024-01-15T23:23:08.072Z,99790.88
2024-01-15T23:25:35.652Z,99785.72
2024-01-15T23:28:02.333Z,99799.41
2024-01-15T23:30:28.804Z,99790.84
2024-01-15T23:32:55.694Z,99789.16
2024-01-15T23:35:22.336Z,99798.53
2024-01-15T23:37:48.891Z,99790.00
2024-01-15T23:40:16.207Z,99794.28
2024-01-15T23:42:43.097Z,99798.56
2024-01-15T23:45:10.295Z,99807.13
2024-01-15T23:47:37.317Z,99799.41
2024-01-15T23:50:05.129Z,99802.00
2024-01-15T23:52:32.173Z,99805.41
2024-01-15T23:54:58.809Z,99810.50
2024-01-15T23:57:25.551Z,99813.94
2024-01-15T23:59:52.179Z,99824.25
